Terminal Aerodrome Forecast
Issued by NWS

Home | Current Version | Previous Version | Text Only | Print | Product List | Glossary On
Versions: 1 2 3 4 5 6 7 8 9 10 11 12 13 14 15 16 17 18 19 20 21 22 23 24 25 26
000
FTUS43 KGLD 252041 AAA
TAFMCK
TAF AMD
KMCK 252041Z 2521/2618 36015G23KT P6SM SCT050 BKN080
     FM260100 36010KT P6SM SCT250
     FM260800 VRB04KT P6SM FEW080 SCT150
     FM261400 21006KT P6SM FEW080 SCT130 SCT200=

USA.gov is the U.S. government's official web portal to all federal, state and local government web resources and services.